Terminal Aerodrome Forecast
Issued by NWS

Home | Current Version | Previous Version | Text Only | Print | Product List | Glossary On
Versions: 1 2 3 4 5 6 7 8 9 10 11 12 13 14 15 16
312
FTAK31 PAJN 061733
TAFASI
TAF
PASI 061733Z 0618/0718 09005KT P6SM VCSH BKN045
      TEMPO 0618/0622 4SM -SN BKN025
     FM062200 10007KT 4SM -SN BR FEW006 OVC025
     FM070200 12012KT 4SM -SN BR BKN025 OVC035=

USA.gov is the U.S. government's official web portal to all federal, state and local government web resources and services.